createdAt,value
2019-03-30T00:01:08.085Z,76.77
2019-03-30T00:03:54.799Z,75.47
2019-03-30T00:09:49.906Z,76.84
2019-03-30T00:12:37.031Z,77.10
2019-03-30T00:15:23.722Z,77.30
2019-03-30T00:18:25.092Z,77.62
2019-03-30T00:24:18.484Z,77.26
2019-03-30T00:27:05.107Z,78.14
2019-03-30T00:36:19.326Z,80.80
2019-03-30T00:39:06.242Z,81.27
2019-03-30T00:41:53.359Z,81.28
2019-03-30T00:44:40.319Z,81.56
2019-03-30T00:56:46.405Z,83.10
2019-03-30T00:59:33.360Z,82.84
2019-03-30T01:02:34.713Z,82.29
2019-03-30T01:05:22.017Z,81.79
2019-03-30T01:08:09.080Z,80.70
2019-03-30T01:14:02.464Z,80.17
2019-03-30T01:16:49.116Z,80.08
2019-03-30T01:28:54.434Z,80.59
2019-03-30T01:35:01.454Z,79.68
2019-03-30T01:37:49.462Z,79.50
2019-03-30T01:43:42.456Z,79.49
2019-03-30T01:46:29.525Z,79.31
2019-03-30T01:49:17.762Z,79.53
2019-03-30T01:52:04.824Z,79.75
2019-03-30T01:54:51.656Z,79.65
2019-03-30T02:00:44.588Z,80.03
2019-03-30T02:03:32.486Z,79.97
2019-03-30T02:06:19.382Z,79.68
2019-03-30T02:12:12.204Z,80.33
2019-03-30T02:14:59.165Z,81.08
2019-03-30T02:17:46.037Z,80.86
2019-03-30T02:20:39.284Z,80.44
2019-03-30T02:23:25.994Z,80.44
2019-03-30T02:26:12.751Z,80.35
2019-03-30T02:35:14.732Z,79.08
2019-03-30T02:38:01.809Z,79.79
2019-03-30T02:56:20.829Z,80.37
2019-03-30T02:59:08.391Z,80.73
2019-03-30T03:01:55.501Z,80.65
2019-03-30T03:04:42.530Z,80.88
2019-03-30T03:10:36.390Z,80.95
2019-03-30T03:13:23.554Z,80.85
2019-03-30T03:16:10.372Z,81.11
2019-03-30T03:18:57.071Z,81.13
2019-03-30T03:21:45.451Z,81.36
2019-03-30T03:24:34.511Z,81.61
2019-03-30T03:30:30.477Z,82.15
2019-03-30T03:33:15.424Z,82.45
2019-03-30T03:36:02.680Z,82.81
2019-03-30T03:38:52.244Z,83.05
2019-03-30T03:41:39.245Z,83.18
2019-03-30T03:44:26.260Z,83.00
2019-03-30T03:50:44.360Z,83.23
2019-03-30T03:53:31.803Z,83.22
2019-03-30T03:56:18.610Z,83.19
2019-03-30T03:59:05.268Z,83.07
2019-03-30T04:01:51.960Z,83.43
2019-03-30T04:04:38.955Z,83.67
2019-03-30T04:07:26.645Z,84.03
2019-03-30T04:10:14.011Z,84.15
2019-03-30T04:13:00.720Z,84.44
2019-03-30T04:15:48.130Z,84.53
2019-03-30T04:18:35.518Z,84.79
2019-03-30T04:21:22.666Z,85.77
2019-03-30T04:24:10.770Z,85.64
2019-03-30T04:30:03.750Z,86.07
2019-03-30T04:32:52.104Z,85.50
2019-03-30T04:35:39.052Z,85.69
2019-03-30T04:38:26.921Z,85.20
2019-03-30T04:44:19.587Z,84.68
2019-03-30T04:50:12.240Z,84.42
2019-03-30T04:52:59.674Z,83.93
2019-03-30T04:55:46.959Z,83.87
2019-03-30T04:58:35.308Z,84.04
2019-03-30T05:01:22.151Z,84.02
2019-03-30T05:04:09.274Z,84.03
2019-03-30T05:06:55.964Z,84.09
2019-03-30T05:09:43.016Z,83.57
2019-03-30T05:12:30.442Z,83.43
2019-03-30T05:15:18.011Z,83.69
2019-03-30T05:21:11.005Z,83.16
2019-03-30T05:23:58.629Z,83.09
2019-03-30T05:26:47.146Z,82.91
2019-03-30T05:29:35.186Z,82.71
2019-03-30T05:32:22.136Z,82.63
2019-03-30T05:35:08.871Z,82.89
2019-03-30T05:37:57.661Z,82.89
2019-03-30T05:46:58.766Z,82.55
2019-03-30T05:49:45.980Z,82.67
2019-03-30T05:52:35.454Z,82.82
2019-03-30T05:55:20.149Z,82.69
2019-03-30T05:58:09.323Z,82.99
2019-03-30T06:00:57.766Z,83.12
2019-03-30T06:03:44.689Z,83.10
2019-03-30T06:06:32.632Z,83.00
2019-03-30T06:09:19.372Z,84.01
2019-03-30T06:12:07.068Z,83.81
2019-03-30T06:14:54.889Z,83.59
2019-03-30T06:17:43.352Z,83.64
2019-03-30T06:20:30.433Z,83.63
2019-03-30T06:23:17.295Z,83.60
2019-03-30T06:26:04.170Z,83.95
2019-03-30T06:28:50.902Z,83.44
2019-03-30T06:31:37.598Z,83.25
2019-03-30T06:34:24.523Z,83.48
2019-03-30T06:37:12.021Z,83.69
2019-03-30T06:40:01.406Z,83.57
2019-03-30T06:42:49.316Z,83.28
2019-03-30T06:45:36.588Z,83.33
2019-03-30T06:48:23.286Z,82.54
2019-03-30T06:51:17.119Z,81.77
2019-03-30T06:54:04.071Z,81.84
2019-03-30T06:56:51.188Z,81.62
2019-03-30T06:59:38.184Z,81.57
2019-03-30T07:02:25.280Z,82.49
2019-03-30T07:05:12.628Z,82.16
2019-03-30T07:07:59.668Z,81.15
2019-03-30T07:10:46.675Z,81.54
2019-03-30T07:13:33.852Z,82.43
2019-03-30T07:16:20.786Z,82.19
2019-03-30T07:19:08.401Z,81.96
2019-03-30T07:21:55.131Z,81.50
2019-03-30T07:24:41.946Z,81.78
2019-03-30T07:27:29.728Z,81.85
2019-03-30T07:30:16.992Z,80.48
2019-03-30T07:36:10.746Z,79.13
2019-03-30T07:38:57.999Z,79.28
2019-03-30T07:44:51.317Z,78.62
2019-03-30T07:47:38.060Z,78.89
2019-03-30T07:50:25.293Z,78.19
2019-03-30T07:53:25.783Z,77.73
2019-03-30T07:56:08.198Z,76.96
2019-03-30T07:58:46.601Z,76.57
2019-03-30T08:01:34.040Z,76.44
2019-03-30T08:04:20.448Z,71.95
2019-03-30T08:07:09.255Z,73.37
2019-03-30T08:09:56.741Z,73.68
2019-03-30T08:12:44.303Z,69.80
2019-03-30T08:15:30.993Z,71.58
2019-03-30T08:21:26.642Z,71.92
2019-03-30T08:24:13.034Z,71.54
2019-03-30T08:30:08.954Z,71.26
2019-03-30T08:32:55.725Z,71.46
2019-03-30T08:38:48.783Z,71.05
2019-03-30T08:41:35.494Z,70.40
2019-03-30T08:44:23.057Z,65.36
2019-03-30T08:47:09.758Z,66.54
2019-03-30T08:49:56.866Z,67.17
2019-03-30T08:52:44.148Z,67.97
2019-03-30T08:55:31.171Z,63.06
2019-03-30T08:58:18.355Z,60.76
2019-03-30T09:01:05.283Z,63.68
2019-03-30T09:03:52.614Z,64.26
2019-03-30T09:06:39.665Z,64.91
2019-03-30T09:09:26.527Z,65.24
2019-03-30T09:12:14.629Z,64.32
2019-03-30T09:15:08.766Z,62.84
2019-03-30T09:17:55.336Z,63.22
2019-03-30T09:20:42.798Z,63.91
2019-03-30T09:23:30.043Z,64.87
2019-03-30T09:26:17.479Z,64.60
2019-03-30T09:29:04.948Z,63.89
2019-03-30T09:31:51.813Z,64.02
2019-03-30T09:34:54.021Z,63.96
2019-03-30T09:37:40.621Z,62.91
2019-03-30T09:40:28.136Z,61.42
2019-03-30T09:43:14.690Z,62.19
2019-03-30T09:46:16.644Z,62.87
2019-03-30T09:55:16.294Z,61.06
2019-03-30T09:58:03.311Z,61.40
2019-03-30T10:00:50.226Z,60.37
2019-03-30T10:03:37.344Z,60.31
2019-03-30T10:06:33.904Z,61.32
2019-03-30T10:09:18.551Z,60.49
2019-03-30T10:12:05.346Z,60.49
2019-03-30T10:15:06.905Z,60.34
2019-03-30T10:17:53.598Z,59.50
2019-03-30T10:20:40.513Z,58.77
2019-03-30T10:23:27.220Z,58.33
2019-03-30T10:26:14.307Z,52.15
2019-03-30T10:29:02.633Z,54.95
2019-03-30T10:31:49.385Z,56.37
2019-03-30T10:34:39.435Z,50.46
2019-03-30T10:37:26.682Z,54.40
2019-03-30T10:40:13.641Z,55.17
2019-03-30T10:43:01.804Z,54.30
2019-03-30T10:45:49.222Z,55.31
2019-03-30T10:48:40.100Z,55.02
2019-03-30T10:51:24.887Z,55.00
2019-03-30T10:54:12.306Z,54.26
2019-03-30T10:57:06.848Z,54.35
2019-03-30T10:59:53.554Z,53.48
2019-03-30T11:02:41.375Z,45.55
2019-03-30T11:05:42.832Z,45.58
2019-03-30T11:08:30.082Z,45.50
2019-03-30T11:11:31.602Z,47.13
2019-03-30T11:14:18.738Z,42.89
2019-03-30T11:17:05.460Z,43.88
2019-03-30T11:19:53.493Z,43.67
2019-03-30T11:22:41.534Z,45.41
2019-03-30T11:25:28.482Z,44.27
2019-03-30T11:31:22.424Z,41.65
2019-03-30T11:34:09.468Z,44.00
2019-03-30T11:36:56.206Z,43.42
2019-03-30T11:39:42.899Z,42.70
2019-03-30T11:42:29.755Z,45.21
2019-03-30T11:45:17.021Z,45.18
2019-03-30T11:48:03.721Z,43.86
2019-03-30T11:50:50.853Z,43.43
2019-03-30T11:53:37.868Z,42.44
2019-03-30T11:56:25.756Z,45.19
2019-03-30T11:59:13.212Z,45.90
2019-03-30T12:02:00.171Z,46.51
2019-03-30T12:04:46.935Z,44.30
2019-03-30T12:10:40.292Z,43.68
2019-03-30T12:13:27.618Z,44.50
2019-03-30T12:16:14.583Z,44.86
2019-03-30T12:19:03.147Z,42.48
2019-03-30T12:21:50.253Z,43.51
2019-03-30T12:24:37.786Z,40.45
2019-03-30T12:27:25.836Z,40.04
2019-03-30T12:30:12.654Z,43.27
2019-03-30T12:33:00.462Z,44.31
2019-03-30T12:35:47.460Z,43.06
2019-03-30T12:38:34.505Z,43.06
2019-03-30T12:41:21.707Z,41.54
2019-03-30T12:44:08.679Z,39.46
2019-03-30T12:50:16.151Z,40.30
2019-03-30T12:53:03.747Z,40.35
2019-03-30T12:55:50.691Z,41.55
2019-03-30T12:58:37.698Z,39.41
2019-03-30T13:01:24.589Z,38.81
2019-03-30T13:04:11.797Z,40.97
2019-03-30T13:07:00.441Z,38.71
2019-03-30T13:09:47.862Z,38.56
2019-03-30T13:12:35.527Z,38.73
2019-03-30T13:15:23.116Z,40.54
2019-03-30T13:18:10.479Z,41.18
2019-03-30T13:20:57.993Z,40.06
2019-03-30T13:23:44.681Z,42.08
2019-03-30T13:26:31.785Z,39.40
2019-03-30T13:29:19.341Z,40.35
2019-03-30T13:32:06.474Z,38.27
2019-03-30T13:34:53.647Z,36.54
2019-03-30T13:37:41.686Z,38.29
2019-03-30T13:40:28.779Z,39.03
2019-03-30T13:43:19.608Z,39.19
2019-03-30T13:46:06.335Z,33.49
2019-03-30T13:48:53.735Z,36.92
2019-03-30T13:51:40.435Z,38.10
2019-03-30T13:54:27.574Z,40.52
2019-03-30T13:57:15.006Z,39.36
2019-03-30T14:00:02.346Z,34.79
2019-03-30T14:02:49.036Z,37.72
2019-03-30T14:05:35.995Z,32.88
2019-03-30T14:11:28.822Z,35.88
2019-03-30T14:14:30.271Z,35.31
2019-03-30T14:17:20.210Z,38.03
2019-03-30T14:20:06.734Z,38.63
2019-03-30T14:22:53.544Z,38.03
2019-03-30T14:25:40.137Z,38.56
2019-03-30T14:28:34.750Z,37.79
2019-03-30T14:31:21.847Z,39.46
2019-03-30T14:34:23.718Z,39.76
2019-03-30T14:40:18.067Z,37.26
2019-03-30T14:43:05.073Z,37.31
2019-03-30T14:45:55.064Z,37.12
2019-03-30T14:48:49.090Z,36.20
2019-03-30T14:51:36.049Z,37.23
2019-03-30T15:03:48.266Z,36.81
2019-03-30T15:06:36.428Z,33.83
2019-03-30T15:12:30.031Z,37.16
2019-03-30T15:15:16.749Z,37.11
2019-03-30T15:18:03.779Z,37.49
2019-03-30T15:20:50.962Z,38.00
2019-03-30T15:23:45.232Z,38.88
2019-03-30T15:26:32.082Z,38.05
2019-03-30T15:29:18.886Z,37.65
2019-03-30T15:32:06.111Z,38.46
2019-03-30T15:35:07.524Z,39.26
2019-03-30T15:37:54.507Z,37.24
2019-03-30T15:40:41.189Z,39.82
2019-03-30T15:43:38.116Z,39.97
2019-03-30T15:46:29.939Z,39.89
2019-03-30T15:49:16.894Z,40.42
2019-03-30T15:52:13.933Z,40.05
2019-03-30T15:54:50.871Z,35.77
2019-03-30T15:57:37.983Z,37.38
2019-03-30T16:00:26.441Z,37.68
2019-03-30T16:03:13.503Z,37.88
2019-03-30T16:06:00.720Z,37.99
2019-03-30T16:08:47.671Z,34.98
2019-03-30T16:11:35.813Z,36.83
2019-03-30T16:14:25.327Z,35.36
2019-03-30T16:17:14.779Z,36.83
2019-03-30T16:19:59.630Z,37.41
2019-03-30T16:22:46.188Z,38.44
2019-03-30T16:25:32.798Z,38.87
2019-03-30T16:28:19.693Z,40.21
2019-03-30T16:31:06.754Z,41.13
2019-03-30T16:33:53.904Z,41.91
2019-03-30T16:39:47.402Z,43.93
2019-03-30T16:42:34.665Z,44.30
2019-03-30T16:45:21.293Z,45.26
2019-03-30T16:48:08.130Z,46.07
2019-03-30T16:50:54.835Z,46.67
2019-03-30T16:53:41.568Z,46.95
2019-03-30T16:56:28.983Z,46.88
2019-03-30T16:59:16.394Z,46.94
2019-03-30T17:02:11.044Z,47.39
2019-03-30T17:04:58.169Z,47.88
2019-03-30T17:07:52.185Z,48.09
2019-03-30T17:10:40.438Z,48.26
2019-03-30T17:13:25.553Z,46.44
2019-03-30T17:19:21.130Z,48.73
2019-03-30T17:22:07.995Z,48.95
2019-03-30T17:28:01.853Z,49.80
2019-03-30T17:30:48.587Z,49.93
2019-03-30T17:33:35.613Z,49.99
2019-03-30T17:36:30.630Z,50.11
2019-03-30T17:39:18.823Z,50.47
2019-03-30T17:42:06.115Z,50.99
2019-03-30T17:44:52.731Z,50.98
2019-03-30T17:47:39.574Z,51.21
2019-03-30T17:50:28.523Z,51.32
2019-03-30T17:53:22.528Z,50.11
2019-03-30T17:56:09.615Z,49.87
2019-03-30T17:58:56.896Z,51.32
2019-03-30T18:01:43.580Z,51.62
2019-03-30T18:07:37.237Z,52.15
2019-03-30T18:16:36.538Z,52.91
2019-03-30T18:19:23.688Z,53.57
2019-03-30T18:22:26.145Z,52.63
2019-03-30T18:25:20.073Z,54.07
2019-03-30T18:28:06.968Z,54.22
2019-03-30T18:30:53.690Z,54.04
2019-03-30T18:33:40.614Z,54.06
2019-03-30T18:36:34.521Z,54.40
2019-03-30T18:39:21.784Z,54.36
2019-03-30T18:42:08.761Z,54.41
2019-03-30T18:44:55.568Z,54.75
2019-03-30T18:53:55.893Z,54.45
2019-03-30T18:56:42.941Z,55.80
2019-03-30T19:02:50.918Z,54.76
2019-03-30T19:05:39.906Z,56.33
2019-03-30T19:08:25.249Z,57.00
2019-03-30T19:11:12.131Z,57.19
2019-03-30T19:13:59.047Z,57.82
2019-03-30T19:16:45.725Z,58.03
2019-03-30T19:22:45.825Z,57.14
2019-03-30T19:53:28.126Z,62.13
2019-03-30T19:59:20.920Z,62.65
2019-03-30T20:02:22.527Z,62.87
2019-03-30T20:05:09.093Z,62.99
2019-03-30T20:07:55.800Z,63.10
2019-03-30T20:13:49.011Z,63.24
2019-03-30T20:16:36.553Z,63.46
2019-03-30T20:19:23.914Z,63.41
2019-03-30T20:25:26.175Z,63.25
2019-03-30T20:31:33.246Z,63.64
2019-03-30T20:34:20.020Z,63.90
2019-03-30T20:37:06.633Z,64.11
2019-03-30T20:39:53.512Z,64.12
2019-03-30T20:42:42.771Z,64.36
2019-03-30T21:25:48.962Z,65.76
2019-03-30T21:28:37.073Z,65.58
2019-03-30T21:31:24.631Z,65.88
2019-03-30T21:52:54.718Z,67.99
2019-03-30T21:55:55.846Z,68.22
2019-03-30T22:20:24.095Z,69.60
2019-03-30T22:23:10.955Z,69.25
2019-03-30T22:29:12.683Z,69.43
2019-03-30T22:31:59.512Z,69.62
2019-03-30T22:41:05.481Z,70.24
2019-03-30T22:53:17.115Z,71.24
2019-03-30T22:56:04.410Z,71.30
2019-03-30T22:58:51.021Z,71.10
2019-03-30T23:04:44.064Z,70.82
2019-03-30T23:07:31.535Z,70.90
2019-03-30T23:10:18.451Z,71.38
2019-03-30T23:13:05.170Z,71.45
2019-03-30T23:28:16.722Z,71.97
2019-03-30T23:31:03.644Z,72.03
2019-03-30T23:33:50.546Z,71.97
2019-03-30T23:36:37.930Z,72.17
2019-03-30T23:39:25.164Z,71.20
2019-03-30T23:45:32.642Z,72.50
2019-03-30T23:48:19.734Z,72.67
2019-03-30T23:51:06.445Z,72.74
2019-03-30T23:53:53.685Z,72.71
